sensor_id;sensor_type;location;lat;lon;timestamp;temperature;humidity
25554;DHT22;13446;50.926;5.332;2023-02-23T00:00:34;10.90;99.90
25554;DHT22;13446;50.926;5.332;2023-02-23T00:03:00;11.00;99.90
25554;DHT22;13446;50.926;5.332;2023-02-23T00:05:28;10.90;99.90
25554;DHT22;13446;50.926;5.332;2023-02-23T00:07:54;10.90;99.90
25554;DHT22;13446;50.926;5.332;2023-02-23T00:10:20;10.90;99.90
25554;DHT22;13446;50.926;5.332;2023-02-23T00:12:46;11.00;99.90
25554;DHT22;13446;50.926;5.332;2023-02-23T00:15:11;10.90;99.90
25554;DHT22;13446;50.926;5.332;2023-02-23T00:17:38;10.90;99.90
25554;DHT22;13446;50.926;5.332;2023-02-23T00:20:06;10.80;99.90
25554;DHT22;13446;50.926;5.332;2023-02-23T00:22:32;10.60;99.90
25554;DHT22;13446;50.926;5.332;2023-02-23T00:24:58;10.60;99.90
25554;DHT22;13446;50.926;5.332;2023-02-23T00:27:24;10.70;99.90
25554;DHT22;13446;50.926;5.332;2023-02-23T00:29:49;10.70;99.90
25554;DHT22;13446;50.926;5.332;2023-02-23T00:32:15;10.70;99.90
25554;DHT22;13446;50.926;5.332;2023-02-23T00:34:46;10.80;99.90
25554;DHT22;13446;50.926;5.332;2023-02-23T00:37:16;10.70;99.90
25554;DHT22;13446;50.926;5.332;2023-02-23T00:39:42;10.70;99.90
25554;DHT22;13446;50.926;5.332;2023-02-23T00:42:07;10.80;99.90
25554;DHT22;13446;50.926;5.332;2023-02-23T00:44:34;10.80;99.90
25554;DHT22;13446;50.926;5.332;2023-02-23T00:47:00;10.80;99.90
25554;DHT22;13446;50.926;5.332;2023-02-23T00:49:26;10.80;99.90
25554;DHT22;13446;50.926;5.332;2023-02-23T00:51:51;10.70;99.90
25554;DHT22;13446;50.926;5.332;2023-02-23T00:54:17;10.70;99.90
25554;DHT22;13446;50.926;5.332;2023-02-23T00:56:43;10.80;99.90
25554;DHT22;13446;50.926;5.332;2023-02-23T00:59:10;10.70;99.90
25554;DHT22;13446;50.926;5.332;2023-02-23T01:01:35;10.70;99.90
25554;DHT22;13446;50.926;5.332;2023-02-23T01:04:06;10.70;99.90
25554;DHT22;13446;50.926;5.332;2023-02-23T01:06:32;10.70;99.90
25554;DHT22;13446;50.926;5.332;2023-02-23T01:08:57;10.60;99.90
25554;DHT22;13446;50.926;5.332;2023-02-23T01:11:24;10.60;99.90
25554;DHT22;13446;50.926;5.332;2023-02-23T01:13:56;10.60;99.90
25554;DHT22;13446;50.926;5.332;2023-02-23T01:16:22;10.60;99.90
25554;DHT22;13446;50.926;5.332;2023-02-23T01:18:52;10.70;99.90
25554;DHT22;13446;50.926;5.332;2023-02-23T01:23:44;10.70;99.90
25554;DHT22;13446;50.926;5.332;2023-02-23T01:26:20;10.70;99.90
25554;DHT22;13446;50.926;5.332;2023-02-23T01:28:49;10.70;99.90
25554;DHT22;13446;50.926;5.332;2023-02-23T01:31:15;10.80;99.90
25554;DHT22;13446;50.926;5.332;2023-02-23T01:33:41;10.80;99.90
25554;DHT22;13446;50.926;5.332;2023-02-23T01:36:06;10.80;99.90
25554;DHT22;13446;50.926;5.332;2023-02-23T01:38:32;10.70;99.90
25554;DHT22;13446;50.926;5.332;2023-02-23T01:40:57;10.70;99.90
25554;DHT22;13446;50.926;5.332;2023-02-23T01:43:23;10.60;99.90
25554;DHT22;13446;50.926;5.332;2023-02-23T01:45:55;10.70;99.90
25554;DHT22;13446;50.926;5.332;2023-02-23T01:48:35;10.80;99.90
25554;DHT22;13446;50.926;5.332;2023-02-23T01:51:07;10.80;99.90
25554;DHT22;13446;50.926;5.332;2023-02-23T01:53:34;10.70;99.90
25554;DHT22;13446;50.926;5.332;2023-02-23T01:56:07;10.60;99.90
25554;DHT22;13446;50.926;5.332;2023-02-23T01:58:37;10.70;99.90
25554;DHT22;13446;50.926;5.332;2023-02-23T02:01:03;10.60;99.90
25554;DHT22;13446;50.926;5.332;2023-02-23T02:06:18;10.60;99.90
25554;DHT22;13446;50.926;5.332;2023-02-23T02:08:48;10.60;99.90
25554;DHT22;13446;50.926;5.332;2023-02-23T02:11:15;10.60;99.90
25554;DHT22;13446;50.926;5.332;2023-02-23T02:14:10;10.60;99.90
25554;DHT22;13446;50.926;5.332;2023-02-23T02:22:16;10.60;99.90
25554;DHT22;13446;50.926;5.332;2023-02-23T02:27:39;10.60;99.90
25554;DHT22;13446;50.926;5.332;2023-02-23T02:33:01;10.60;99.90
25554;DHT22;13446;50.926;5.332;2023-02-23T02:43:02;10.70;99.90
25554;DHT22;13446;50.926;5.332;2023-02-23T02:50:52;10.80;99.90
25554;DHT22;13446;50.926;5.332;2023-02-23T02:53:25;10.70;99.90
25554;DHT22;13446;50.926;5.332;2023-02-23T02:55:53;10.70;99.90
25554;DHT22;13446;50.926;5.332;2023-02-23T02:58:20;10.60;99.90
25554;DHT22;13446;50.926;5.332;2023-02-23T03:00:50;10.50;99.90
25554;DHT22;13446;50.926;5.332;2023-02-23T03:03:38;10.50;99.90
25554;DHT22;13446;50.926;5.332;2023-02-23T03:06:27;10.50;99.90
25554;DHT22;13446;50.926;5.332;2023-02-23T03:15:16;10.60;99.90
25554;DHT22;13446;50.926;5.332;2023-02-23T03:20:52;10.70;99.90
25554;DHT22;13446;50.926;5.332;2023-02-23T03:26:27;10.70;99.90
25554;DHT22;13446;50.926;5.332;2023-02-23T03:29:16;10.50;99.90
25554;DHT22;13446;50.926;5.332;2023-02-23T03:34:50;10.50;99.90
25554;DHT22;13446;50.926;5.332;2023-02-23T03:37:37;10.50;99.90
25554;DHT22;13446;50.926;5.332;2023-02-23T03:40:24;10.60;99.90
25554;DHT22;13446;50.926;5.332;2023-02-23T03:43:11;10.60;99.90
25554;DHT22;13446;50.926;5.332;2023-02-23T03:45:56;10.60;99.90
25554;DHT22;13446;50.926;5.332;2023-02-23T03:48:42;10.70;99.90
25554;DHT22;13446;50.926;5.332;2023-02-23T03:51:27;10.70;99.90
25554;DHT22;13446;50.926;5.332;2023-02-23T03:54:15;10.70;99.90
25554;DHT22;13446;50.926;5.332;2023-02-23T03:57:03;10.60;99.90
25554;DHT22;13446;50.926;5.332;2023-02-23T03:59:52;10.60;99.90
25554;DHT22;13446;50.926;5.332;2023-02-23T04:02:37;10.50;99.90
25554;DHT22;13446;50.926;5.332;2023-02-23T04:05:23;10.30;99.90
25554;DHT22;13446;50.926;5.332;2023-02-23T04:08:08;10.40;99.90
25554;DHT22;13446;50.926;5.332;2023-02-23T04:10:57;10.50;99.90
25554;DHT22;13446;50.926;5.332;2023-02-23T04:13:43;10.50;99.90
25554;DHT22;13446;50.926;5.332;2023-02-23T04:16:11;10.50;99.90
25554;DHT22;13446;50.926;5.332;2023-02-23T04:18:38;10.50;99.90
25554;DHT22;13446;50.926;5.332;2023-02-23T04:21:04;10.40;99.90
25554;DHT22;13446;50.926;5.332;2023-02-23T04:23:30;10.50;99.90
25554;DHT22;13446;50.926;5.332;2023-02-23T04:25:56;10.50;99.90
25554;DHT22;13446;50.926;5.332;2023-02-23T04:28:22;10.60;99.90
25554;DHT22;13446;50.926;5.332;2023-02-23T04:30:48;10.50;99.90
25554;DHT22;13446;50.926;5.332;2023-02-23T04:33:13;10.50;99.90
25554;DHT22;13446;50.926;5.332;2023-02-23T04:35:39;10.50;99.90
25554;DHT22;13446;50.926;5.332;2023-02-23T04:38:06;10.60;99.90
25554;DHT22;13446;50.926;5.332;2023-02-23T04:40:32;10.50;99.90
25554;DHT22;13446;50.926;5.332;2023-02-23T04:42:57;10.50;99.90
25554;DHT22;13446;50.926;5.332;2023-02-23T04:45:23;10.50;99.90
25554;DHT22;13446;50.926;5.332;2023-02-23T04:47:49;10.50;99.90
25554;DHT22;13446;50.926;5.332;2023-02-23T04:50:15;10.50;99.90
25554;DHT22;13446;50.926;5.332;2023-02-23T04:52:41;10.40;99.90
25554;DHT22;13446;50.926;5.332;2023-02-23T04:55:07;10.40;99.90
25554;DHT22;13446;50.926;5.332;2023-02-23T04:57:33;10.40;99.90
25554;DHT22;13446;50.926;5.332;2023-02-23T04:59:59;10.40;99.90
25554;DHT22;13446;50.926;5.332;2023-02-23T05:02:25;10.50;99.90
25554;DHT22;13446;50.926;5.332;2023-02-23T05:04:51;10.60;99.90
25554;DHT22;13446;50.926;5.332;2023-02-23T05:07:16;10.60;99.90
25554;DHT22;13446;50.926;5.332;2023-02-23T05:09:42;10.70;99.90
25554;DHT22;13446;50.926;5.332;2023-02-23T05:12:07;10.60;99.90
25554;DHT22;13446;50.926;5.332;2023-02-23T05:14:33;10.60;99.90
25554;DHT22;13446;50.926;5.332;2023-02-23T05:16:58;10.70;99.90
25554;DHT22;13446;50.926;5.332;2023-02-23T05:19:24;10.70;99.90
25554;DHT22;13446;50.926;5.332;2023-02-23T05:21:50;10.70;99.90
25554;DHT22;13446;50.926;5.332;2023-02-23T05:24:16;10.70;99.90
25554;DHT22;13446;50.926;5.332;2023-02-23T05:26:42;10.60;99.90
25554;DHT22;13446;50.926;5.332;2023-02-23T05:29:07;10.50;99.90
25554;DHT22;13446;50.926;5.332;2023-02-23T05:31:33;10.50;99.90
25554;DHT22;13446;50.926;5.332;2023-02-23T05:33:59;10.60;99.90
25554;DHT22;13446;50.926;5.332;2023-02-23T05:36:24;10.60;99.90
25554;DHT22;13446;50.926;5.332;2023-02-23T05:38:50;10.60;99.90
25554;DHT22;13446;50.926;5.332;2023-02-23T05:41:19;10.60;99.90
25554;DHT22;13446;50.926;5.332;2023-02-23T05:43:45;10.60;99.90
25554;DHT22;13446;50.926;5.332;2023-02-23T05:46:13;10.60;99.90
25554;DHT22;13446;50.926;5.332;2023-02-23T05:48:39;10.50;99.90
25554;DHT22;13446;50.926;5.332;2023-02-23T05:51:06;10.50;99.90
25554;DHT22;13446;50.926;5.332;2023-02-23T05:53:32;10.40;99.90
25554;DHT22;13446;50.926;5.332;2023-02-23T05:55:57;10.30;99.90
25554;DHT22;13446;50.926;5.332;2023-02-23T05:58:23;10.20;99.90
25554;DHT22;13446;50.926;5.332;2023-02-23T06:00:48;10.40;99.90
25554;DHT22;13446;50.926;5.332;2023-02-23T06:03:14;10.40;99.90
25554;DHT22;13446;50.926;5.332;2023-02-23T06:05:40;10.30;99.90
25554;DHT22;13446;50.926;5.332;2023-02-23T06:08:07;10.30;99.90
25554;DHT22;13446;50.926;5.332;2023-02-23T06:10:32;10.10;99.90
25554;DHT22;13446;50.926;5.332;2023-02-23T06:12:58;10.10;99.90
25554;DHT22;13446;50.926;5.332;2023-02-23T06:15:23;10.20;99.90
25554;DHT22;13446;50.926;5.332;2023-02-23T06:17:49;10.40;99.90
25554;DHT22;13446;50.926;5.332;2023-02-23T06:20:14;10.50;99.90
25554;DHT22;13446;50.926;5.332;2023-02-23T06:22:40;10.60;99.90
25554;DHT22;13446;50.926;5.332;2023-02-23T06:25:06;10.60;99.90
25554;DHT22;13446;50.926;5.332;2023-02-23T06:27:37;10.50;99.90
25554;DHT22;13446;50.926;5.332;2023-02-23T06:30:03;10.40;99.90
25554;DHT22;13446;50.926;5.332;2023-02-23T06:32:29;10.40;99.90
25554;DHT22;13446;50.926;5.332;2023-02-23T06:34:54;10.20;99.90
25554;DHT22;13446;50.926;5.332;2023-02-23T06:37:20;10.20;99.90
25554;DHT22;13446;50.926;5.332;2023-02-23T06:39:45;10.20;99.90
25554;DHT22;13446;50.926;5.332;2023-02-23T06:42:11;10.10;99.90
25554;DHT22;13446;50.926;5.332;2023-02-23T06:44:37;10.20;99.90
25554;DHT22;13446;50.926;5.332;2023-02-23T06:47:04;10.10;99.90
25554;DHT22;13446;50.926;5.332;2023-02-23T06:49:30;10.20;99.90
25554;DHT22;13446;50.926;5.332;2023-02-23T06:51:55;10.00;99.90
25554;DHT22;13446;50.926;5.332;2023-02-23T06:54:22;10.00;99.90
25554;DHT22;13446;50.926;5.332;2023-02-23T06:56:47;10.00;99.90
25554;DHT22;13446;50.926;5.332;2023-02-23T06:59:14;10.10;99.90
25554;DHT22;13446;50.926;5.332;2023-02-23T07:01:40;10.10;99.90
25554;DHT22;13446;50.926;5.332;2023-02-23T07:04:11;10.00;99.90
25554;DHT22;13446;50.926;5.332;2023-02-23T07:06:37;10.00;99.90
25554;DHT22;13446;50.926;5.332;2023-02-23T07:09:03;10.10;99.90
25554;DHT22;13446;50.926;5.332;2023-02-23T07:11:30;10.20;99.90
25554;DHT22;13446;50.926;5.332;2023-02-23T07:13:59;10.20;99.90
25554;DHT22;13446;50.926;5.332;2023-02-23T07:16:26;10.30;99.90
25554;DHT22;13446;50.926;5.332;2023-02-23T07:18:52;10.30;99.90
25554;DHT22;13446;50.926;5.332;2023-02-23T07:21:17;10.30;99.90
25554;DHT22;13446;50.926;5.332;2023-02-23T07:23:43;10.30;99.90
25554;DHT22;13446;50.926;5.332;2023-02-23T07:26:08;10.20;99.90
25554;DHT22;13446;50.926;5.332;2023-02-23T07:28:35;10.30;99.90
25554;DHT22;13446;50.926;5.332;2023-02-23T07:31:01;10.40;99.90
25554;DHT22;13446;50.926;5.332;2023-02-23T07:33:26;10.20;99.90
25554;DHT22;13446;50.926;5.332;2023-02-23T07:35:52;10.30;99.90
25554;DHT22;13446;50.926;5.332;2023-02-23T07:38:17;10.20;99.90
25554;DHT22;13446;50.926;5.332;2023-02-23T07:40:43;10.30;99.90
25554;DHT22;13446;50.926;5.332;2023-02-23T07:43:08;10.30;99.90
25554;DHT22;13446;50.926;5.332;2023-02-23T07:45:34;10.30;99.90
25554;DHT22;13446;50.926;5.332;2023-02-23T07:48:00;10.40;99.90
25554;DHT22;13446;50.926;5.332;2023-02-23T07:50:25;10.30;99.90
25554;DHT22;13446;50.926;5.332;2023-02-23T07:52:51;10.30;99.90
25554;DHT22;13446;50.926;5.332;2023-02-23T07:55:16;10.30;99.90
25554;DHT22;13446;50.926;5.332;2023-02-23T07:57:42;10.30;99.90
25554;DHT22;13446;50.926;5.332;2023-02-23T08:00:08;10.30;99.90
25554;DHT22;13446;50.926;5.332;2023-02-23T08:02:34;10.30;99.90
25554;DHT22;13446;50.926;5.332;2023-02-23T08:04:59;10.40;99.90
25554;DHT22;13446;50.926;5.332;2023-02-23T08:07:25;10.50;99.90
25554;DHT22;13446;50.926;5.332;2023-02-23T08:09:50;10.50;99.90
25554;DHT22;13446;50.926;5.332;2023-02-23T08:12:16;10.50;99.90
25554;DHT22;13446;50.926;5.332;2023-02-23T08:14:42;10.50;99.90
25554;DHT22;13446;50.926;5.332;2023-02-23T08:17:08;10.40;99.90
25554;DHT22;13446;50.926;5.332;2023-02-23T08:19:34;10.40;99.90
25554;DHT22;13446;50.926;5.332;2023-02-23T08:22:00;10.40;99.90
25554;DHT22;13446;50.926;5.332;2023-02-23T08:24:25;10.40;99.90
25554;DHT22;13446;50.926;5.332;2023-02-23T08:26:53;10.50;99.90
25554;DHT22;13446;50.926;5.332;2023-02-23T08:29:19;10.40;99.90
25554;DHT22;13446;50.926;5.332;2023-02-23T08:31:45;10.40;99.90
25554;DHT22;13446;50.926;5.332;2023-02-23T08:34:11;10.40;99.90
25554;DHT22;13446;50.926;5.332;2023-02-23T08:36:37;10.30;99.90
25554;DHT22;13446;50.926;5.332;2023-02-23T08:39:03;10.40;99.90
25554;DHT22;13446;50.926;5.332;2023-02-23T08:41:32;10.40;99.90
25554;DHT22;13446;50.926;5.332;2023-02-23T08:43:58;10.50;99.90
25554;DHT22;13446;50.926;5.332;2023-02-23T08:46:23;10.40;99.90
25554;DHT22;13446;50.926;5.332;2023-02-23T08:48:49;10.50;99.90
25554;DHT22;13446;50.926;5.332;2023-02-23T08:51:14;10.50;99.90
25554;DHT22;13446;50.926;5.332;2023-02-23T08:53:40;10.60;99.90
25554;DHT22;13446;50.926;5.332;2023-02-23T08:56:06;10.70;99.90
25554;DHT22;13446;50.926;5.332;2023-02-23T08:58:32;10.80;99.90
25554;DHT22;13446;50.926;5.332;2023-02-23T09:00:58;10.80;99.90
25554;DHT22;13446;50.926;5.332;2023-02-23T09:03:24;11.00;99.90
25554;DHT22;13446;50.926;5.332;2023-02-23T09:05:53;11.00;99.90
25554;DHT22;13446;50.926;5.332;2023-02-23T09:08:19;11.00;99.90
25554;DHT22;13446;50.926;5.332;2023-02-23T09:10:44;11.20;99.90
25554;DHT22;13446;50.926;5.332;2023-02-23T09:13:10;11.20;99.90
25554;DHT22;13446;50.926;5.332;2023-02-23T09:15:37;11.30;99.90
25554;DHT22;13446;50.926;5.332;2023-02-23T09:18:03;11.30;99.90
25554;DHT22;13446;50.926;5.332;2023-02-23T09:20:29;11.30;99.90
25554;DHT22;13446;50.926;5.332;2023-02-23T09:22:55;11.30;99.90
25554;DHT22;13446;50.926;5.332;2023-02-23T09:25:21;11.40;99.90
25554;DHT22;13446;50.926;5.332;2023-02-23T09:27:47;11.50;99.90
25554;DHT22;13446;50.926;5.332;2023-02-23T09:30:13;11.70;99.90
25554;DHT22;13446;50.926;5.332;2023-02-23T09:32:48;11.80;99.90
25554;DHT22;13446;50.926;5.332;2023-02-23T09:35:15;11.80;99.90
25554;DHT22;13446;50.926;5.332;2023-02-23T09:37:43;11.90;99.90
25554;DHT22;13446;50.926;5.332;2023-02-23T09:40:15;11.70;99.90
25554;DHT22;13446;50.926;5.332;2023-02-23T09:45:17;11.70;99.90
25554;DHT22;13446;50.926;5.332;2023-02-23T09:50:13;12.10;99.90
25554;DHT22;13446;50.926;5.332;2023-02-23T09:52:41;12.10;99.90
25554;DHT22;13446;50.926;5.332;2023-02-23T09:55:12;12.10;99.90
25554;DHT22;13446;50.926;5.332;2023-02-23T09:57:39;12.00;99.90
25554;DHT22;13446;50.926;5.332;2023-02-23T10:00:11;12.00;99.90
25554;DHT22;13446;50.926;5.332;2023-02-23T10:02:42;11.80;99.90
25554;DHT22;13446;50.926;5.332;2023-02-23T10:05:14;11.70;99.90
25554;DHT22;13446;50.926;5.332;2023-02-23T10:12:57;11.60;99.90
25554;DHT22;13446;50.926;5.332;2023-02-23T10:17:59;11.50;99.90
25554;DHT22;13446;50.926;5.332;2023-02-23T10:23:05;11.80;99.90
25554;DHT22;13446;50.926;5.332;2023-02-23T10:25:33;11.60;99.90
25554;DHT22;13446;50.926;5.332;2023-02-23T10:28:00;11.70;99.90
25554;DHT22;13446;50.926;5.332;2023-02-23T10:30:30;11.70;99.90
25554;DHT22;13446;50.926;5.332;2023-02-23T10:33:03;11.70;99.90
25554;DHT22;13446;50.926;5.332;2023-02-23T10:35:30;11.80;99.90
25554;DHT22;13446;50.926;5.332;2023-02-23T10:37:56;11.90;99.90
25554;DHT22;13446;50.926;5.332;2023-02-23T10:40:24;11.80;99.90
25554;DHT22;13446;50.926;5.332;2023-02-23T10:42:53;11.70;99.90
25554;DHT22;13446;50.926;5.332;2023-02-23T10:45:20;11.80;99.90
25554;DHT22;13446;50.926;5.332;2023-02-23T10:47:50;11.70;99.90
25554;DHT22;13446;50.926;5.332;2023-02-23T10:50:16;11.80;99.90
25554;DHT22;13446;50.926;5.332;2023-02-23T10:52:43;11.90;99.90
25554;DHT22;13446;50.926;5.332;2023-02-23T10:55:19;12.10;99.90
25554;DHT22;13446;50.926;5.332;2023-02-23T10:57:46;12.30;99.90
25554;DHT22;13446;50.926;5.332;2023-02-23T11:02:44;12.60;99.90
25554;DHT22;13446;50.926;5.332;2023-02-23T11:10:55;13.10;99.90
25554;DHT22;13446;50.926;5.332;2023-02-23T11:13:21;13.30;99.90
25554;DHT22;13446;50.926;5.332;2023-02-23T11:15:47;13.40;99.90
25554;DHT22;13446;50.926;5.332;2023-02-23T11:18:20;13.90;99.90
25554;DHT22;13446;50.926;5.332;2023-02-23T11:20:47;14.20;99.90
25554;DHT22;13446;50.926;5.332;2023-02-23T11:23:25;14.80;99.90
25554;DHT22;13446;50.926;5.332;2023-02-23T11:25:54;15.30;99.90
25554;DHT22;13446;50.926;5.332;2023-02-23T11:28:24;15.80;99.90
25554;DHT22;13446;50.926;5.332;2023-02-23T11:30:59;15.90;99.90
25554;DHT22;13446;50.926;5.332;2023-02-23T11:33:27;16.20;99.90
25554;DHT22;13446;50.926;5.332;2023-02-23T11:35:59;17.00;99.90
25554;DHT22;13446;50.926;5.332;2023-02-23T11:38:26;18.40;99.90
25554;DHT22;13446;50.926;5.332;2023-02-23T11:40:59;20.40;99.90
25554;DHT22;13446;50.926;5.332;2023-02-23T11:43:28;22.40;99.90
25554;DHT22;13446;50.926;5.332;2023-02-23T11:45:54;23.60;95.60
25554;DHT22;13446;50.926;5.332;2023-02-23T11:48:26;21.90;94.90
25554;DHT22;13446;50.926;5.332;2023-02-23T11:50:53;20.10;98.00
25554;DHT22;13446;50.926;5.332;2023-02-23T11:53:22;19.10;99.90
25554;DHT22;13446;50.926;5.332;2023-02-23T11:55:53;17.80;99.90
25554;DHT22;13446;50.926;5.332;2023-02-23T11:58:34;17.30;99.90
25554;DHT22;13446;50.926;5.332;2023-02-23T12:01:04;16.70;99.90
25554;DHT22;13446;50.926;5.332;2023-02-23T12:03:37;15.90;99.90
25554;DHT22;13446;50.926;5.332;2023-02-23T12:06:08;15.30;99.90
25554;DHT22;13446;50.926;5.332;2023-02-23T12:08:48;14.90;99.90
25554;DHT22;13446;50.926;5.332;2023-02-23T12:11:18;14.70;99.90
25554;DHT22;13446;50.926;5.332;2023-02-23T12:13:52;14.60;99.90
25554;DHT22;13446;50.926;5.332;2023-02-23T12:16:35;14.50;99.90
25554;DHT22;13446;50.926;5.332;2023-02-23T12:19:20;14.20;99.90
25554;DHT22;13446;50.926;5.332;2023-02-23T12:21:49;13.70;99.90
25554;DHT22;13446;50.926;5.332;2023-02-23T12:26:56;13.30;99.90
25554;DHT22;13446;50.926;5.332;2023-02-23T12:29:37;13.20;99.90
25554;DHT22;13446;50.926;5.332;2023-02-23T12:35:00;13.20;99.90
25554;DHT22;13446;50.926;5.332;2023-02-23T12:38:02;13.40;99.90
25554;DHT22;13446;50.926;5.332;2023-02-23T12:42:48;13.40;99.90
25554;DHT22;13446;50.926;5.332;2023-02-23T12:45:17;13.30;99.90
25554;DHT22;13446;50.926;5.332;2023-02-23T12:47:48;13.40;99.90
25554;DHT22;13446;50.926;5.332;2023-02-23T12:50:31;13.40;99.90
25554;DHT22;13446;50.926;5.332;2023-02-23T12:53:33;13.50;99.90
25554;DHT22;13446;50.926;5.332;2023-02-23T13:03:32;13.30;99.90
25554;DHT22;13446;50.926;5.332;2023-02-23T13:06:12;13.50;99.90
25554;DHT22;13446;50.926;5.332;2023-02-23T13:11:27;13.70;99.90
25554;DHT22;13446;50.926;5.332;2023-02-23T13:14:03;13.90;99.90
25554;DHT22;13446;50.926;5.332;2023-02-23T13:16:34;14.30;99.90
25554;DHT22;13446;50.926;5.332;2023-02-23T13:24:05;14.60;99.90
25554;DHT22;13446;50.926;5.332;2023-02-23T13:26:45;14.40;99.90
25554;DHT22;13446;50.926;5.332;2023-02-23T13:31:59;13.90;99.90
25554;DHT22;13446;50.926;5.332;2023-02-23T13:34:26;13.80;99.90
25554;DHT22;13446;50.926;5.332;2023-02-23T13:36:52;13.80;99.90
25554;DHT22;13446;50.926;5.332;2023-02-23T13:42:03;13.70;99.90
25554;DHT22;13446;50.926;5.332;2023-02-23T13:47:20;13.60;99.90
25554;DHT22;13446;50.926;5.332;2023-02-23T13:50:26;13.60;99.90
25554;DHT22;13446;50.926;5.332;2023-02-23T13:52:47;13.60;99.90
25554;DHT22;13446;50.926;5.332;2023-02-23T13:57:51;13.40;99.90
25554;DHT22;13446;50.926;5.332;2023-02-23T14:00:20;13.30;99.90
25554;DHT22;13446;50.926;5.332;2023-02-23T14:02:46;13.10;99.90
25554;DHT22;13446;50.926;5.332;2023-02-23T14:07:46;13.10;99.90
25554;DHT22;13446;50.926;5.332;2023-02-23T14:10:18;12.90;99.90
25554;DHT22;13446;50.926;5.332;2023-02-23T14:20:53;12.70;99.90
25554;DHT22;13446;50.926;5.332;2023-02-23T14:23:28;12.70;99.90
25554;DHT22;13446;50.926;5.332;2023-02-23T14:26:14;12.60;99.90
25554;DHT22;13446;50.926;5.332;2023-02-23T14:28:47;12.40;99.90
25554;DHT22;13446;50.926;5.332;2023-02-23T14:31:29;12.40;99.90
25554;DHT22;13446;50.926;5.332;2023-02-23T14:33:58;12.50;99.90
25554;DHT22;13446;50.926;5.332;2023-02-23T14:41:21;12.40;99.90
25554;DHT22;13446;50.926;5.332;2023-02-23T14:43:48;12.20;99.90
25554;DHT22;13446;50.926;5.332;2023-02-23T14:46:20;12.10;99.90
25554;DHT22;13446;50.926;5.332;2023-02-23T14:49:05;12.10;99.90
25554;DHT22;13446;50.926;5.332;2023-02-23T14:51:47;12.00;99.90
25554;DHT22;13446;50.926;5.332;2023-02-23T14:56:45;12.00;99.90
25554;DHT22;13446;50.926;5.332;2023-02-23T14:59:16;12.00;99.90
25554;DHT22;13446;50.926;5.332;2023-02-23T15:01:41;12.10;99.90
25554;DHT22;13446;50.926;5.332;2023-02-23T15:04:08;12.10;99.90
25554;DHT22;13446;50.926;5.332;2023-02-23T15:06:35;12.10;99.90
25554;DHT22;13446;50.926;5.332;2023-02-23T15:09:00;12.00;99.90
25554;DHT22;13446;50.926;5.332;2023-02-23T15:11:26;12.00;99.90
25554;DHT22;13446;50.926;5.332;2023-02-23T15:13:53;11.80;99.90
25554;DHT22;13446;50.926;5.332;2023-02-23T15:16:26;11.90;99.90
25554;DHT22;13446;50.926;5.332;2023-02-23T15:18:53;11.80;99.90
25554;DHT22;13446;50.926;5.332;2023-02-23T15:21:20;11.90;99.90
25554;DHT22;13446;50.926;5.332;2023-02-23T15:23:51;12.00;99.90
25554;DHT22;13446;50.926;5.332;2023-02-23T15:26:29;12.10;99.90
25554;DHT22;13446;50.926;5.332;2023-02-23T15:29:16;12.10;99.90
25554;DHT22;13446;50.926;5.332;2023-02-23T15:31:43;12.10;99.90
25554;DHT22;13446;50.926;5.332;2023-02-23T15:34:25;12.20;99.90
25554;DHT22;13446;50.926;5.332;2023-02-23T15:36:58;12.20;99.90
25554;DHT22;13446;50.926;5.332;2023-02-23T15:40:11;12.10;99.90
25554;DHT22;13446;50.926;5.332;2023-02-23T15:42:18;12.10;99.90
25554;DHT22;13446;50.926;5.332;2023-02-23T15:44:46;12.00;99.90
25554;DHT22;13446;50.926;5.332;2023-02-23T15:47:20;11.90;99.90
25554;DHT22;13446;50.926;5.332;2023-02-23T15:49:47;12.00;99.90
25554;DHT22;13446;50.926;5.332;2023-02-23T15:52:15;12.10;99.90
25554;DHT22;13446;50.926;5.332;2023-02-23T15:54:52;12.10;99.90
25554;DHT22;13446;50.926;5.332;2023-02-23T15:57:29;12.20;99.90
25554;DHT22;13446;50.926;5.332;2023-02-23T15:59:57;12.20;99.90
25554;DHT22;13446;50.926;5.332;2023-02-23T16:02:25;12.20;99.90
25554;DHT22;13446;50.926;5.332;2023-02-23T16:04:50;12.30;99.90
25554;DHT22;13446;50.926;5.332;2023-02-23T16:09:48;12.10;99.90
25554;DHT22;13446;50.926;5.332;2023-02-23T16:12:16;12.10;99.90
25554;DHT22;13446;50.926;5.332;2023-02-23T16:17:18;12.10;99.90
25554;DHT22;13446;50.926;5.332;2023-02-23T16:19:44;12.10;99.90
25554;DHT22;13446;50.926;5.332;2023-02-23T16:22:30;12.10;99.90
25554;DHT22;13446;50.926;5.332;2023-02-23T16:24:57;12.10;99.90
25554;DHT22;13446;50.926;5.332;2023-02-23T16:27:23;12.00;99.90
25554;DHT22;13446;50.926;5.332;2023-02-23T16:32:37;11.90;99.90
25554;DHT22;13446;50.926;5.332;2023-02-23T16:35:13;11.80;99.90
25554;DHT22;13446;50.926;5.332;2023-02-23T16:37:49;11.70;99.90
25554;DHT22;13446;50.926;5.332;2023-02-23T16:40:16;11.80;99.90
25554;DHT22;13446;50.926;5.332;2023-02-23T16:42:41;11.60;99.90
25554;DHT22;13446;50.926;5.332;2023-02-23T16:45:12;11.50;99.90
25554;DHT22;13446;50.926;5.332;2023-02-23T16:47:42;11.60;99.90
25554;DHT22;13446;50.926;5.332;2023-02-23T16:50:10;11.50;99.90
25554;DHT22;13446;50.926;5.332;2023-02-23T16:52:41;11.60;99.90
25554;DHT22;13446;50.926;5.332;2023-02-23T16:55:13;11.50;99.90
25554;DHT22;13446;50.926;5.332;2023-02-23T16:57:44;11.60;99.90
25554;DHT22;13446;50.926;5.332;2023-02-23T17:00:11;11.60;99.90
25554;DHT22;13446;50.926;5.332;2023-02-23T17:02:45;11.50;99.90
25554;DHT22;13446;50.926;5.332;2023-02-23T17:05:12;11.60;99.90
25554;DHT22;13446;50.926;5.332;2023-02-23T17:07:37;11.50;99.90
25554;DHT22;13446;50.926;5.332;2023-02-23T17:10:04;11.40;99.90
25554;DHT22;13446;50.926;5.332;2023-02-23T17:12:30;11.20;99.90
25554;DHT22;13446;50.926;5.332;2023-02-23T17:14:56;11.20;99.90
25554;DHT22;13446;50.926;5.332;2023-02-23T17:17:24;11.10;99.90
25554;DHT22;13446;50.926;5.332;2023-02-23T17:19:53;11.10;99.90
25554;DHT22;13446;50.926;5.332;2023-02-23T17:22:18;11.00;99.90
25554;DHT22;13446;50.926;5.332;2023-02-23T17:24:44;10.90;99.90
25554;DHT22;13446;50.926;5.332;2023-02-23T17:27:09;10.90;99.90
25554;DHT22;13446;50.926;5.332;2023-02-23T17:29:35;10.80;99.90
25554;DHT22;13446;50.926;5.332;2023-02-23T17:32:01;10.80;99.90
25554;DHT22;13446;50.926;5.332;2023-02-23T17:34:27;10.70;99.90
25554;DHT22;13446;50.926;5.332;2023-02-23T17:36:53;10.80;99.90
25554;DHT22;13446;50.926;5.332;2023-02-23T17:39:19;10.80;99.90
25554;DHT22;13446;50.926;5.332;2023-02-23T17:41:44;10.90;99.90
25554;DHT22;13446;50.926;5.332;2023-02-23T17:44:10;10.90;99.90
25554;DHT22;13446;50.926;5.332;2023-02-23T17:46:35;10.90;99.90
25554;DHT22;13446;50.926;5.332;2023-02-23T17:49:03;10.80;99.90
25554;DHT22;13446;50.926;5.332;2023-02-23T17:51:29;11.00;99.90